Terminal Aerodrome Forecast
Issued by NWS

Home | Current Version | Previous Version | Text Only | Print | Product List | Glossary Off
Versions: 1 2 3 4 5 6 7 8 9 10 11 12 13 14 15 16 17 18 19 20 21

000
FTUS43 KFGF 221800 AAA
TAFBJI
TAF AMD
KBJI 221827Z 2218/2318 16003KT P6SM OVC015
      TEMPO 2218/2221 BKN025
     FM222100 32006KT P6SM BKN025
     FM230400 VRB03KT P6SM OVC012
     FM231000 VRB03KT P6SM OVC006=

USA.gov is the U.S. government's official web portal to all federal, state and local government web resources and services.